Time;durP1;ratioP1;P1;durP2;ratioP2;P2;SDS_P1;SDS_P2;PMS_P1;PMS_P2;Temp;Humidity;BMP_temperature;BMP_pressure;BME280_temperature;BME280_humidity;BME280_pressure;Samples;Min_cycle;Max_cycle;Signal;HPM_P1;HPM_P2
2024/03/09 00:01:49;;;;;;;60.80;27.85;;;102.80;2227.20;;;;;;5057151;28;20589;-72
2024/03/09 00:07:37;;;;;;;58.55;26.58;;;102.60;2227.20;;;;;;5055970;28;20056;-73
2024/03/09 00:10:05;;;;;;;57.97;26.23;;;102.50;2227.20;;;;;;5057024;28;20455;-71
2024/03/09 00:12:33;;;;;;;59.75;27.00;;;102.40;2227.20;;;;;;5056842;28;20483;-72
2024/03/09 00:15:03;;;;;;;60.17;27.55;;;77.70;2227.20;;;;;;5056861;28;20463;-70
2024/03/09 00:17:30;;;;;;;62.30;27.55;;;77.70;2227.20;;;;;;5056765;28;20325;-70
2024/03/09 00:19:59;;;;;;;63.30;26.33;;;77.60;2227.20;;;;;;5057141;28;20025;-71
2024/03/09 00:22:28;;;;;;;63.30;28.80;;;77.60;2227.20;;;;;;5048829;28;20448;-71
2024/03/09 00:24:54;;;;;;;64.95;28.45;;;77.50;2227.20;;;;;;5056991;28;20459;-71
2024/03/09 00:27:24;;;;;;;63.88;27.77;;;77.50;2227.20;;;;;;5057405;28;20399;-71
2024/03/09 00:29:56;;;;;;;62.75;28.02;;;77.40;2227.20;;;;;;5039492;28;20036;-71
2024/03/09 00:32:25;;;;;;;67.38;30.30;;;77.50;2227.20;;;;;;5048293;28;20475;-71
2024/03/09 00:38:13;;;;;;;58.80;26.40;;;77.60;2227.20;;;;;;5054776;28;20028;-70
2024/03/09 00:40:39;;;;;;;60.72;27.75;;;102.80;2227.20;;;;;;5040083;28;20049;-69
2024/03/09 00:43:04;;;;;;;58.78;26.52;;;77.60;2227.20;;;;;;5047713;28;20029;-69
2024/03/09 00:45:30;;;;;;;59.92;26.33;;;77.60;2227.20;;;;;;5031639;28;20025;-71
2024/03/09 00:47:56;;;;;;;61.00;26.58;;;77.50;2227.20;;;;;;5032666;28;20044;-69
2024/03/09 00:50:24;;;;;;;59.67;27.17;;;77.50;2227.20;;;;;;5024600;28;20026;-71
2024/03/09 00:52:51;;;;;;;73.72;33.38;;;77.70;2227.20;;;;;;5032705;28;20025;-72
2024/03/09 00:55:17;;;;;;;67.80;29.17;;;77.60;2227.20;;;;;;5047621;28;20029;-71
2024/03/09 00:57:44;;;;;;;62.85;27.40;;;77.50;2227.20;;;;;;5033377;28;20473;-72
2024/03/09 01:00:12;;;;;;;61.80;26.52;;;77.40;2227.20;;;;;;5032740;28;20022;-72
2024/03/09 01:02:38;;;;;;;56.33;25.98;;;77.30;2227.20;;;;;;5033253;28;20028;-71
2024/03/09 01:05:05;;;;;;;62.00;25.90;;;77.30;2227.20;;;;;;5034188;28;20025;-71
2024/03/09 01:07:32;;;;;;;71.03;31.63;;;77.10;2227.20;;;;;;5023935;28;20057;-71
2024/03/09 01:09:58;;;;;;;76.18;36.25;;;77.20;2227.20;;;;;;5014146;28;20102;-71
2024/03/09 01:12:26;;;;;;;60.03;26.15;;;77.20;2227.20;;;;;;5017408;28;20468;-70
2024/03/09 01:14:53;;;;;;;66.05;27.45;;;77.20;2227.20;;;;;;5024888;28;20028;-71
2024/03/09 01:17:21;;;;;;;65.70;27.33;;;77.00;2227.20;;;;;;5031371;28;20040;-72
2024/03/09 01:19:50;;;;;;;61.88;26.55;;;77.10;2227.20;;;;;;5016593;28;20034;-73
2024/03/09 01:22:17;;;;;;;63.83;27.30;;;;;;;;;;5024034;28;20021;-73
2024/03/09 01:24:43;;;;;;;58.20;26.23;;;;;;;;;;5013393;28;20092;-73
2024/03/09 01:27:09;;;;;;;64.72;27.20;;;;;;;;;;5014860;28;20022;-72
2024/03/09 01:29:36;;;;;;;61.15;26.58;;;;;;;;;;5012102;28;20165;-72
2024/03/09 01:32:05;;;;;;;64.53;26.98;;;;;;;;;;5012363;28;20022;-73
2024/03/09 01:34:31;;;;;;;57.00;26.13;;;;;;;;;;5012188;28;20021;-74
2024/03/09 01:36:57;;;;;;;61.17;26.88;;;;;;;;;;5012069;28;20021;-73
2024/03/09 01:39:23;;;;;;;66.57;26.33;;;;;;;;;;5013575;28;20030;-71
2024/03/09 01:41:52;;;;;;;64.00;26.73;;;76.80;2227.20;;;;;;5027352;28;20049;-73
2024/03/09 01:44:18;;;;;;;61.42;26.60;;;52.00;2227.20;;;;;;5032081;28;20029;-72
2024/03/09 01:46:46;;;;;;;59.92;25.58;;;52.00;2227.20;;;;;;5011710;28;20397;-72
2024/03/09 01:49:12;;;;;;;63.63;26.90;;;52.10;2227.20;;;;;;5028183;28;20038;-71
2024/03/09 01:51:40;;;;;;;60.78;27.00;;;51.90;2227.20;;;;;;5012469;28;20014;-72
2024/03/09 01:54:10;;;;;;;59.22;25.92;;;51.90;2227.20;;;;;;5014296;28;20032;-72
2024/03/09 01:56:38;;;;;;;61.75;25.92;;;51.80;2227.20;;;;;;5028625;28;20041;-71
2024/03/09 01:59:08;;;;;;;58.25;25.90;;;52.00;2227.20;;;;;;5030266;28;20848;-74
2024/03/09 02:01:36;;;;;;;59.92;25.35;;;51.80;2227.20;;;;;;5032075;28;20832;-72
2024/03/09 02:04:04;;;;;;;61.50;25.20;;;51.60;2227.20;;;;;;5032729;28;20033;-71
2024/03/09 02:06:32;;;;;;;61.45;26.02;;;51.60;2227.20;;;;;;5032890;28;20029;-71
2024/03/09 02:08:59;;;;;;;59.58;25.58;;;51.60;2227.20;;;;;;5017645;28;20063;-74
2024/03/09 02:11:29;;;;;;;61.88;25.10;;;51.50;2227.20;;;;;;5030772;28;20632;-69
2024/03/09 02:13:56;;;;;;;62.40;25.90;;;51.70;2227.20;;;;;;5012844;28;20451;-70
2024/03/09 02:16:22;;;;;;;57.17;25.55;;;51.50;2227.20;;;;;;5010210;28;20022;-70
2024/03/09 02:18:48;;;;;;;61.78;25.63;;;51.50;2227.20;;;;;;5030180;28;20029;-71
2024/03/09 02:21:18;;;;;;;61.72;24.42;;;51.50;2227.20;;;;;;5030143;28;20500;-71
2024/03/09 02:23:47;;;;;;;59.65;25.92;;;51.40;2227.20;;;;;;5028036;28;20038;-70
2024/03/09 02:26:16;;;;;;;64.80;26.17;;;51.40;2227.20;;;;;;5029495;28;20026;-72
2024/03/09 02:28:55;;;;;;;61.42;25.92;;;51.40;2227.20;;;;;;5029236;28;20150;-73
2024/03/09 02:31:25;;;;;;;60.20;25.20;;;51.40;2227.20;;;;;;5024743;28;20029;-71
2024/03/09 02:33:53;;;;;;;59.75;25.35;;;51.50;2227.20;;;;;;5023391;28;20034;-71
2024/03/09 02:36:23;;;;;;;61.35;25.17;;;51.40;2227.20;;;;;;5029656;28;20026;-71
2024/03/09 02:38:49;;;;;;;55.17;24.38;;;51.40;2227.20;;;;;;5030246;28;20479;-71
2024/03/09 02:41:15;;;;;;;58.80;24.42;;;51.50;2227.20;;;;;;5031017;28;20068;-72
2024/03/09 02:43:41;;;;;;;57.70;24.55;;;51.50;2227.20;;;;;;5029866;28;20065;-72
2024/03/09 02:46:07;;;;;;;59.55;25.35;;;51.40;2227.20;;;;;;5030702;28;20030;-71
2024/03/09 02:48:33;;;;;;;58.85;24.85;;;51.50;2227.20;;;;;;5028613;28;20099;-71
2024/03/09 02:51:01;;;;;;;59.20;23.92;;;51.50;2227.20;;;;;;5019506;28;20803;-72
2024/03/09 02:53:27;;;;;;;55.85;24.55;;;51.60;2227.20;;;;;;5029190;28;20442;-71
2024/03/09 02:55:53;;;;;;;53.28;23.33;;;51.60;2227.20;;;;;;5020519;28;20540;-71
2024/03/09 02:58:19;;;;;;;55.47;23.35;;;51.60;2227.20;;;;;;5030465;28;20116;-71
2024/03/09 03:00:46;;;;;;;53.67;22.65;;;51.60;2227.20;;;;;;5030474;28;20018;-71
2024/03/09 03:05:56;;;;;;;50.78;21.88;;;51.50;2227.20;;;;;;5031779;28;20120;-70
2024/03/09 03:08:23;;;;;;;52.30;22.70;;;51.60;2227.20;;;;;;5031782;28;20155;-70
2024/03/09 03:10:50;;;;;;;55.40;23.48;;;51.50;2227.20;;;;;;5048609;28;20511;-72
2024/03/09 03:13:15;;;;;;;47.28;20.40;;;51.50;2227.20;;;;;;5050304;28;20047;-72
2024/03/09 03:15:41;;;;;;;51.67;22.48;;;51.50;2227.20;;;;;;5050384;28;20031;-72
2024/03/09 03:18:10;;;;;;;48.55;21.45;;;51.60;2227.20;;;;;;5050579;28;20025;-72
2024/03/09 03:20:36;;;;;;;51.42;21.88;;;51.60;2227.20;;;;;;5049215;28;20131;-69
2024/03/09 03:23:03;;;;;;;48.60;20.80;;;51.50;2227.20;;;;;;5050273;28;20119;-70
2024/03/09 03:25:29;;;;;;;48.60;21.65;;;51.50;2227.20;;;;;;5049821;28;20036;-72
2024/03/09 03:27:56;;;;;;;52.85;23.00;;;51.60;2227.20;;;;;;5021524;28;20029;-72
2024/03/09 03:30:22;;;;;;;51.13;21.73;;;51.50;2227.20;;;;;;5047957;28;20029;-72
2024/03/09 03:32:50;;;;;;;51.05;23.70;;;51.50;2227.20;;;;;;5049903;28;20028;-72
2024/03/09 03:35:17;;;;;;;48.50;22.10;;;51.60;2227.20;;;;;;5050261;28;20059;-72
2024/03/09 03:37:46;;;;;;;50.17;21.40;;;51.60;2227.20;;;;;;5030836;28;20071;-72
2024/03/09 03:40:14;;;;;;;47.05;21.67;;;51.70;2227.20;;;;;;5046939;28;20038;-71
2024/03/09 03:42:41;;;;;;;47.78;21.73;;;51.70;2227.20;;;;;;5051234;28;20784;-71
2024/03/09 03:45:11;;;;;;;50.95;21.80;;;51.70;2227.20;;;;;;5051423;28;20032;-71
2024/03/09 03:47:38;;;;;;;51.30;21.95;;;51.60;2227.20;;;;;;5051096;28;20111;-71
2024/03/09 03:50:08;;;;;;;50.45;23.00;;;51.60;2227.20;;;;;;5051068;28;20119;-71
2024/03/09 03:52:34;;;;;;;54.10;23.15;;;51.60;2227.20;;;;;;5050755;28;20032;-71
2024/03/09 03:55:00;;;;;;;49.53;22.08;;;51.60;2227.20;;;;;;5050329;28;20033;-71
2024/03/09 03:57:27;;;;;;;48.58;22.38;;;51.70;2227.20;;;;;;5035056;28;20048;-71
2024/03/09 03:59:53;;;;;;;53.70;23.00;;;51.70;2227.20;;;;;;5034465;28;20076;-72
2024/03/09 04:02:19;;;;;;;53.60;22.65;;;51.70;2227.20;;;;;;5052265;28;20028;-72
2024/03/09 04:04:45;;;;;;;51.95;21.98;;;51.70;2227.20;;;;;;5052363;28;20055;-71
2024/03/09 04:07:10;;;;;;;50.03;22.15;;;51.70;2227.20;;;;;;5045630;28;20120;-72
2024/03/09 04:09:36;;;;;;;46.92;21.48;;;51.60;2227.20;;;;;;5033606;28;20109;-72
2024/03/09 04:12:02;;;;;;;50.78;23.00;;;51.60;2227.20;;;;;;5029327;28;20060;-73
2024/03/09 04:14:28;;;;;;;55.72;22.60;;;51.50;2227.20;;;;;;5024772;28;20029;-71
2024/03/09 04:16:54;;;;;;;51.05;22.67;;;51.40;2227.20;;;;;;5003864;28;20058;-70
2024/03/09 04:19:20;;;;;;;46.90;21.05;;;51.40;2227.20;;;;;;5012278;28;20050;-73
2024/03/09 04:21:46;;;;;;;50.72;22.45;;;51.50;2227.20;;;;;;5009152;28;20388;-72
2024/03/09 04:24:12;;;;;;;49.30;21.65;;;51.60;2227.20;;;;;;5013696;28;20033;-74
2024/03/09 04:26:42;;;;;;;54.15;23.75;;;51.70;2227.20;;;;;;5023485;28;20049;-72
2024/03/09 04:29:08;;;;;;;52.08;21.58;;;51.70;2227.20;;;;;;5032064;28;20369;-72
2024/03/09 04:31:33;;;;;;;48.25;20.63;;;51.60;2227.20;;;;;;5032007;28;20076;-71
2024/03/09 04:34:02;;;;;;;48.30;20.38;;;51.60;2227.20;;;;;;5016810;28;20037;-70
2024/03/09 04:36:31;;;;;;;48.40;20.92;;;51.60;2227.20;;;;;;5008978;28;20556;-73
2024/03/09 04:39:00;;;;;;;49.05;22.30;;;51.60;2227.20;;;;;;4986192;28;20037;-72
2024/03/09 04:41:28;;;;;;;46.45;20.95;;;51.60;2227.20;;;;;;5016612;28;20030;-72
2024/03/09 04:43:54;;;;;;;46.20;20.50;;;51.60;2227.20;;;;;;5030250;28;20026;-73
2024/03/09 04:46:20;;;;;;;46.72;21.15;;;51.60;2227.20;;;;;;5032611;28;20041;-73
2024/03/09 04:48:46;;;;;;;46.60;20.45;;;51.50;2227.20;;;;;;5036411;28;20048;-72
2024/03/09 04:51:12;;;;;;;46.00;21.65;;;51.50;2227.20;;;;;;5035829;28;20086;-71
2024/03/09 04:53:38;;;;;;;46.60;19.23;;;51.50;2227.20;;;;;;5010667;28;20037;-71
2024/03/09 04:56:04;;;;;;;45.47;20.20;;;51.40;2227.20;;;;;;5017828;28;20026;-72
2024/03/09 04:58:30;;;;;;;48.13;21.27;;;51.50;2227.20;;;;;;5035223;28;20033;-71
2024/03/09 05:00:56;;;;;;;49.65;22.60;;;51.50;2227.20;;;;;;5036188;28;20376;-73
2024/03/09 05:03:22;;;;;;;44.58;19.38;;;51.70;2227.20;;;;;;5035206;28;20037;-73
2024/03/09 05:05:48;;;;;;;45.30;19.65;;;51.60;2227.20;;;;;;5036147;28;20030;-73
2024/03/09 05:08:14;;;;;;;44.40;19.40;;;51.70;2227.20;;;;;;5034953;28;20370;-73
2024/03/09 05:10:39;;;;;;;53.65;24.35;;;51.60;2227.20;;;;;;5033954;28;20104;-72
2024/03/09 05:13:08;;;;;;;45.13;20.83;;;51.70;2227.20;;;;;;5014359;28;20030;-71
2024/03/09 05:15:35;;;;;;;48.70;22.92;;;51.70;2227.20;;;;;;5019051;28;20048;-72
2024/03/09 05:18:03;;;;;;;56.47;25.90;;;51.70;2227.20;;;;;;5035518;28;20488;-69
2024/03/09 05:20:30;;;;;;;44.17;20.10;;;51.80;2227.20;;;;;;5035310;28;20038;-72
2024/03/09 05:22:57;;;;;;;43.67;19.52;;;51.90;2227.20;;;;;;5035575;28;20087;-72
2024/03/09 05:25:24;;;;;;;46.22;19.40;;;51.90;2227.20;;;;;;5026181;28;20037;-70
2024/03/09 05:27:51;;;;;;;42.65;20.15;;;51.90;2227.20;;;;;;5034568;28;20480;-70
2024/03/09 05:30:19;;;;;;;54.05;22.83;;;51.80;2227.20;;;;;;5034855;28;20061;-69
2024/03/09 05:32:53;;;;;;;46.53;21.23;;;51.90;2227.20;;;;;;5013717;28;20026;-71
2024/03/09 05:35:30;;;;;;;46.53;20.75;;;51.90;2227.20;;;;;;5021046;28;20416;-69
2024/03/09 05:37:58;;;;;;;50.35;21.42;;;51.80;2227.20;;;;;;5026386;28;20026;-69
2024/03/09 05:40:29;;;;;;;43.17;20.50;;;51.80;2227.20;;;;;;5024096;28;20513;-70
2024/03/09 05:42:56;;;;;;;49.55;21.33;;;51.80;2227.20;;;;;;5034187;28;20476;-72
2024/03/09 05:45:22;;;;;;;46.28;20.90;;;51.80;2227.20;;;;;;5035121;28;20057;-73
2024/03/09 05:47:54;;;;;;;45.42;20.38;;;51.90;2227.20;;;;;;5035060;28;20182;-70
2024/03/09 05:50:24;;;;;;;44.65;19.23;;;51.90;2227.20;;;;;;5032668;28;20037;-72
2024/03/09 05:52:57;;;;;;;44.90;20.25;;;51.90;2227.20;;;;;;5028208;28;20018;-72
2024/03/09 05:55:24;;;;;;;42.15;19.17;;;51.90;2227.20;;;;;;4998714;28;20035;-71
2024/03/09 05:57:51;;;;;;;41.35;19.45;;;52.00;2227.20;;;;;;5015263;28;20100;-71
2024/03/09 06:00:24;;;;;;;42.10;19.30;;;51.90;2227.20;;;;;;5012359;28;20045;-71
2024/03/09 06:02:52;;;;;;;42.80;19.35;;;52.10;2227.20;;;;;;5003737;28;20034;-72
2024/03/09 06:05:22;;;;;;;42.97;19.25;;;77.00;2227.20;;;;;;5013970;28;20389;-71
2024/03/09 06:07:47;;;;;;;40.67;19.15;;;76.90;2227.20;;;;;;5026340;28;20060;-72
2024/03/09 06:10:21;;;;;;;38.83;17.83;;;76.90;2227.20;;;;;;5034274;28;20033;-72
2024/03/09 06:12:49;;;;;;;40.83;18.13;;;77.10;2227.20;;;;;;5015869;28;20030;-71
2024/03/09 06:15:16;;;;;;;34.78;17.23;;;77.50;2227.20;;;;;;5017908;28;20041;-73
2024/03/09 06:17:47;;;;;;;33.63;17.00;;;128.30;2252.80;;;;;;5034428;28;20081;-72
2024/03/09 06:20:14;;;;;;;29.92;15.57;;;;;;;;;;5025421;28;20029;-74
2024/03/09 06:22:45;;;;;;;33.47;16.83;;;;;;;;;;5018663;28;20026;-75
2024/03/09 06:25:25;;;;;;;29.48;14.65;;;230.50;2252.80;;;;;;5024558;28;20030;-73
2024/03/09 06:27:56;;;;;;;28.77;14.48;;;205.20;2252.80;;;;;;5033768;28;20036;-74
2024/03/09 06:30:23;;;;;;;31.80;15.52;;;;;;;;;;5019588;28;20033;-73
2024/03/09 06:32:50;;;;;;;30.95;15.60;;;;;;;;;;5007479;28;20026;-73
2024/03/09 06:35:19;;;;;;;31.27;15.70;;;128.60;2252.80;;;;;;5013929;28;20018;-70
2024/03/09 06:38:01;;;;;;;30.65;16.13;;;128.70;2252.80;;;;;;5020422;28;20029;-73
2024/03/09 06:40:29;;;;;;;28.50;14.55;;;179.30;2252.80;;;;;;5026048;28;20030;-73
2024/03/09 06:43:03;;;;;;;29.88;15.32;;;154.50;2252.80;;;;;;5031570;28;20083;-72
2024/03/09 06:45:29;;;;;;;31.33;14.70;;;154.00;2252.80;;;;;;5022477;28;20022;-73
2024/03/09 06:47:58;;;;;;;26.98;14.27;;;153.60;2252.80;;;;;;5013765;28;20022;-72
2024/03/09 06:50:25;;;;;;;27.20;14.57;;;;;;;;;;5032352;28;20044;-73
2024/03/09 06:52:51;;;;;;;26.98;14.10;;;230.60;2252.80;;;;;;5018199;28;20493;-74
2024/03/09 06:55:18;;;;;;;27.92;14.13;;;205.10;2252.80;;;;;;5007283;28;20109;-73
2024/03/09 06:57:46;;;;;;;25.55;13.63;;;204.80;2252.80;;;;;;5016337;28;20021;-72
2024/03/09 07:00:14;;;;;;;23.25;13.52;;;281.70;2278.40;;;;;;5014584;28;20032;-74
2024/03/09 07:02:43;;;;;;;22.35;12.95;;;307.80;2304.00;;;;;;5030967;28;20132;-74
2024/03/09 07:05:12;;;;;;;22.75;13.18;;;358.60;2201.60;;;;;;5023714;28;20080;-72
2024/03/09 07:07:41;;;;;;;22.35;12.63;;;;;;;;;;5024255;28;20576;-72
2024/03/09 07:10:09;;;;;;;21.55;12.95;;;;;;;;;;5013502;28;20076;-73
2024/03/09 07:12:42;;;;;;;24.00;14.05;;;384.00;1945.60;;;;;;5012735;28;20088;-72
2024/03/09 07:15:15;;;;;;;23.98;13.55;;;359.10;1971.20;;;;;;5016903;28;20392;-71
2024/03/09 07:17:46;;;;;;;24.95;13.18;;;384.70;1920.00;;;;;;5016418;28;20026;-73
2024/03/09 07:20:13;;;;;;;22.70;11.93;;;384.00;1894.40;;;;;;5031174;28;20460;-73
2024/03/09 07:22:50;;;;;;;23.60;12.55;;;359.30;1868.80;;;;;;5030386;28;20031;-72
2024/03/09 07:25:23;;;;;;;22.45;13.02;;;384.50;2150.40;;;;;;5032231;28;20026;-73
2024/03/09 07:27:56;;;;;;;22.85;12.85;;;384.90;1843.20;;;;;;5032135;28;20026;-72
2024/03/09 07:30:32;;;;;;;21.40;11.90;;;;;;;;;;5033259;28;20561;-73
2024/03/09 07:32:58;;;;;;;21.35;11.75;;;409.90;1817.60;;;;;;5026975;28;20064;-71
2024/03/09 07:35:29;;;;;;;24.60;12.30;;;384.80;1843.20;;;;;;4999101;28;20058;-72
2024/03/09 07:37:58;;;;;;;22.05;12.30;;;409.60;1868.80;;;;;;4993724;28;20085;-72
2024/03/09 07:40:25;;;;;;;21.33;13.05;;;384.80;1817.60;;;;;;5014252;28;20099;-72
2024/03/09 07:42:54;;;;;;;20.55;11.52;;;435.70;1766.40;;;;;;5028796;28;20388;-71
2024/03/09 07:45:29;;;;;;;22.25;12.50;;;410.40;1740.80;;;;;;5010526;28;20045;-73
2024/03/09 07:47:55;;;;;;;;;;;384.90;1792.00;;;;;;5013332;28;20026;-70
2024/03/09 07:50:22;;;;;;;22.58;12.60;;;384.80;1843.20;;;;;;5013035;28;20276;-71
2024/03/09 07:52:53;;;;;;;21.17;12.18;;;384.90;1843.20;;;;;;5013014;28;20084;-72
2024/03/09 07:55:24;;;;;;;21.55;13.10;;;384.80;1868.80;;;;;;5010589;28;20489;-73
2024/03/09 07:57:52;;;;;;;25.70;15.63;;;409.70;1868.80;;;;;;5005689;28;20762;-73
2024/03/09 08:00:22;;;;;;;20.27;12.13;;;384.90;1868.80;;;;;;5011572;28;20032;-71
2024/03/09 08:02:49;;;;;;;19.95;11.65;;;359.10;1945.60;;;;;;5011483;28;20117;-70
2024/03/09 08:05:20;;;;;;;23.05;13.07;;;333.20;2048.00;;;;;;5011594;28;20061;-72
2024/03/09 08:07:47;;;;;;;22.38;11.82;;;308.10;2176.00;;;;;;5022846;28;20132;-72
2024/03/09 08:10:15;;;;;;;21.67;13.00;;;308.00;2227.20;;;;;;5031188;28;20026;-71
2024/03/09 08:12:41;;;;;;;21.50;12.15;;;308.00;2278.40;;;;;;5032364;28;20025;-71
2024/03/09 08:15:08;;;;;;;21.83;12.55;;;308.00;2304.00;;;;;;5033062;28;20111;-71
2024/03/09 08:17:34;;;;;;;20.15;11.60;;;332.90;2329.60;;;;;;5025748;28;20384;-70
2024/03/09 08:20:00;;;;;;;22.15;12.95;;;307.60;2304.00;;;;;;5034977;28;20128;-71
2024/03/09 08:22:27;;;;;;;20.42;12.35;;;282.40;2278.40;;;;;;5034876;28;20075;-71
2024/03/09 08:24:53;;;;;;;19.98;12.18;;;307.30;2304.00;;;;;;5034893;28;20036;-71
2024/03/09 08:27:18;;;;;;;27.05;12.75;;;307.70;2304.00;;;;;;5035223;28;20026;-72
2024/03/09 08:29:44;;;;;;;21.10;12.77;;;307.80;2304.00;;;;;;5034870;28;20570;-73
2024/03/09 08:32:10;;;;;;;20.90;12.63;;;308.10;2304.00;;;;;;5035028;28;20047;-72
2024/03/09 08:34:36;;;;;;;20.30;12.07;;;333.30;2329.60;;;;;;5034332;28;20030;-72
2024/03/09 08:37:08;;;;;;;19.50;12.25;;;333.00;2329.60;;;;;;5029693;28;20025;-73
2024/03/09 08:39:37;;;;;;;20.52;12.85;;;332.80;2329.60;;;;;;5034701;28;20026;-72
2024/03/09 08:42:06;;;;;;;20.77;12.23;;;307.90;2304.00;;;;;;5033651;28;20022;-72
2024/03/09 08:44:35;;;;;;;20.63;12.30;;;332.80;2329.60;;;;;;5034403;28;20026;-73
2024/03/09 08:47:03;;;;;;;20.95;12.40;;;333.20;2329.60;;;;;;5036914;28;20036;-73
2024/03/09 08:49:30;;;;;;;21.00;11.55;;;332.90;2329.60;;;;;;5051494;28;20379;-72
2024/03/09 08:51:57;;;;;;;21.55;13.32;;;308.10;2304.00;;;;;;5052022;28;20029;-73
2024/03/09 08:54:23;;;;;;;20.98;12.65;;;332.80;2329.60;;;;;;5034408;28;20025;-73
2024/03/09 08:56:55;;;;;;;22.67;11.88;;;307.80;2304.00;;;;;;5031153;28;20032;-72
2024/03/09 08:59:21;;;;;;;19.23;12.18;;;307.30;2304.00;;;;;;5017671;28;20117;-73
2024/03/09 09:01:48;;;;;;;20.75;12.52;;;307.30;2304.00;;;;;;5014579;28;20080;-73
2024/03/09 09:04:14;;;;;;;20.63;13.18;;;307.50;2304.00;;;;;;5020839;28;20013;-74
2024/03/09 09:06:40;;;;;;;17.60;10.77;;;307.90;2304.00;;;;;;5053879;28;20028;-73
2024/03/09 09:09:16;;;;;;;19.15;11.65;;;307.70;2304.00;;;;;;5054026;28;20041;-73
2024/03/09 09:11:42;;;;;;;21.30;13.35;;;307.60;2304.00;;;;;;5053803;28;20033;-74
2024/03/09 09:14:08;;;;;;;29.10;17.80;;;308.10;2304.00;;;;;;5054190;28;20032;-73
2024/03/09 09:16:33;;;;;;;17.33;10.73;;;333.50;2329.60;;;;;;5039585;28;20080;-74
2024/03/09 09:18:59;;;;;;;19.30;12.32;;;332.90;2329.60;;;;;;5013723;28;20030;-74
2024/03/09 09:21:25;;;;;;;19.63;12.00;;;333.20;2329.60;;;;;;5014232;28;20076;-73
2024/03/09 09:23:50;;;;;;;18.65;12.13;;;333.70;2329.60;;;;;;5013922;28;20037;-74
2024/03/09 09:26:16;;;;;;;21.55;11.70;;;358.50;2329.60;;;;;;5014041;28;20441;-73
2024/03/09 09:28:42;;;;;;;16.25;10.80;;;;;;;;;;5014007;28;20038;-74
2024/03/09 09:31:11;;;;;;;18.70;11.15;;;;;;;;;;5015584;28;20029;-75
2024/03/09 09:33:38;;;;;;;17.63;11.10;;;;;;;;;;5022528;28;20030;-76
2024/03/09 09:36:04;;;;;;;18.90;11.18;;;358.40;2329.60;;;;;;5033521;28;20036;-71
2024/03/09 09:38:31;;;;;;;18.00;11.68;;;358.40;2329.60;;;;;;5045947;28;20022;-74
2024/03/09 09:40:58;;;;;;;19.77;12.10;;;359.10;2329.60;;;;;;5035018;28;20473;-74
2024/03/09 09:43:28;;;;;;;17.88;12.10;;;359.30;2329.60;;;;;;5023577;28;20037;-73
2024/03/09 09:46:00;;;;;;;16.58;10.30;;;384.50;2252.80;;;;;;5029828;28;20028;-75
2024/03/09 09:48:29;;;;;;;18.35;12.15;;;359.30;2150.40;;;;;;5055448;28;20071;-72
2024/03/09 09:50:56;;;;;;;17.70;11.25;;;359.30;2252.80;;;;;;5038346;28;20029;-75
2024/03/09 09:53:22;;;;;;;17.65;11.55;;;359.20;2176.00;;;;;;5035168;28;20038;-75
2024/03/09 09:55:48;;;;;;;17.52;11.60;;;358.60;2329.60;;;;;;5035374;28;20030;-75
2024/03/09 09:58:14;;;;;;;16.85;11.10;;;359.10;2201.60;;;;;;5035127;28;20450;-75
2024/03/09 10:00:43;;;;;;;24.15;12.82;;;358.50;2278.40;;;;;;5035863;28;20037;-77
2024/03/09 10:03:10;;;;;;;19.25;11.70;;;333.60;2329.60;;;;;;5027395;28;20506;-74
2024/03/09 10:05:39;;;;;;;17.70;11.55;;;333.70;2329.60;;;;;;5026026;28;20064;-72
2024/03/09 10:08:09;;;;;;;17.77;11.60;;;358.40;2329.60;;;;;;5016840;28;20444;-75
2024/03/09 10:10:38;;;;;;;19.02;12.15;;;358.70;2278.40;;;;;;5011534;28;20017;-74
2024/03/09 10:13:11;;;;;;;21.05;14.18;;;384.10;2227.20;;;;;;5011555;28;20067;-75
2024/03/09 10:15:43;;;;;;;19.92;12.00;;;384.60;2099.20;;;;;;5011663;28;20496;-74
2024/03/09 10:18:09;;;;;;;21.08;12.95;;;384.10;2099.20;;;;;;5012070;28;20040;-74
2024/03/09 10:20:37;;;;;;;18.10;11.23;;;384.10;2150.40;;;;;;5008233;28;20109;-73
2024/03/09 10:23:04;;;;;;;18.55;11.98;;;384.10;2150.40;;;;;;5004125;28;20034;-74
2024/03/09 10:25:37;;;;;;;32.35;20.48;;;384.20;2150.40;;;;;;5012264;28;20080;-74
2024/03/09 10:28:08;;;;;;;25.30;15.73;;;359.30;2150.40;;;;;;5029091;28;20048;-72
2024/03/09 10:30:37;;;;;;;36.35;22.10;;;384.20;2124.80;;;;;;5017665;28;20488;-73
2024/03/09 10:33:10;;;;;;;20.25;12.13;;;410.10;2150.40;;;;;;5009912;28;20034;-74
2024/03/09 10:35:41;;;;;;;19.55;12.32;;;384.50;2150.40;;;;;;5008961;28;20117;-73
2024/03/09 10:38:08;;;;;;;17.58;12.25;;;384.90;2099.20;;;;;;5005423;28;20062;-72
2024/03/09 10:40:34;;;;;;;19.02;12.20;;;409.80;2099.20;;;;;;5003483;28;20033;-71
2024/03/09 10:43:02;;;;;;;17.60;11.63;;;410.30;2099.20;;;;;;5004779;28;20040;-75
2024/03/09 10:45:33;;;;;;;21.23;13.65;;;;;;;;;;4991481;28;20046;-72
2024/03/09 10:48:05;;;;;;;22.23;13.40;;;435.40;2073.60;;;;;;5002592;28;20045;-73
2024/03/09 10:50:37;;;;;;;20.25;13.38;;;435.60;2022.40;;;;;;5010433;28;20030;-70
2024/03/09 10:53:07;;;;;;;20.73;13.10;;;410.30;2099.20;;;;;;5011821;28;20108;-72
2024/03/09 10:55:54;;;;;;;22.67;14.93;;;409.70;2124.80;;;;;;5012348;28;20046;-73
2024/03/09 10:58:25;;;;;;;21.60;13.73;;;384.40;2124.80;;;;;;5010239;28;20038;-72
2024/03/09 11:00:52;;;;;;;21.60;13.98;;;409.70;2150.40;;;;;;5005583;28;20076;-72
2024/03/09 11:03:23;;;;;;;18.80;12.75;;;384.80;2201.60;;;;;;5010326;28;20044;-71
2024/03/09 11:05:52;;;;;;;23.50;13.50;;;384.80;2201.60;;;;;;5010349;28;20485;-74
2024/03/09 11:08:20;;;;;;;23.48;14.45;;;384.40;2201.60;;;;;;4972246;28;1176395;-71
2024/03/09 11:10:46;;;;;;;22.05;13.80;;;384.90;2227.20;;;;;;5014668;28;20029;-71
2024/03/09 11:13:15;;;;;;;21.52;14.63;;;409.70;2329.60;;;;;;5012408;28;20076;-75
2024/03/09 11:15:40;;;;;;;21.55;14.35;;;409.90;2227.20;;;;;;5016733;28;20033;-70
2024/03/09 11:18:07;;;;;;;22.58;14.32;;;410.30;2227.20;;;;;;5003115;28;22974;-75
2024/03/09 11:20:36;;;;;;;21.92;14.80;;;410.10;2227.20;;;;;;5029061;28;20056;-74
2024/03/09 11:23:02;;;;;;;23.13;15.80;;;435.60;2176.00;;;;;;5024113;28;20175;-73
2024/03/09 11:25:43;;;;;;;22.20;14.15;;;435.50;2150.40;;;;;;5007700;28;20416;-75
2024/03/09 11:28:09;;;;;;;22.90;15.57;;;436.00;2073.60;;;;;;5003119;28;20041;-74
2024/03/09 11:30:35;;;;;;;22.63;15.20;;;435.40;2150.40;;;;;;5001538;28;20393;-74
2024/03/09 11:33:02;;;;;;;22.65;14.43;;;435.50;2176.00;;;;;;5014390;28;20072;-72
2024/03/09 11:35:32;;;;;;;23.00;14.85;;;435.50;2124.80;;;;;;4995389;28;20481;-75
2024/03/09 11:38:09;;;;;;;21.02;14.15;;;435.50;2201.60;;;;;;5000770;28;20152;-74
2024/03/09 11:40:35;;;;;;;20.02;13.80;;;460.80;2099.20;;;;;;4990535;28;20030;-71
2024/03/09 11:43:05;;;;;;;60.03;26.85;;;435.50;2099.20;;;;;;5002879;28;20037;-71
2024/03/09 11:45:34;;;;;;;22.83;14.18;;;435.50;2099.20;;;;;;5003045;28;20080;-73
2024/03/09 11:48:02;;;;;;;33.63;18.05;;;435.50;2099.20;;;;;;5013501;28;20392;-74
2024/03/09 11:50:28;;;;;;;25.80;16.17;;;435.70;2099.20;;;;;;4995113;28;20101;-74
2024/03/09 11:52:55;;;;;;;22.55;14.82;;;410.20;2201.60;;;;;;4995251;28;20026;-75
2024/03/09 11:55:21;;;;;;;24.75;13.98;;;410.20;2227.20;;;;;;5010056;28;20037;-74
2024/03/09 11:57:48;;;;;;;20.77;13.88;;;435.20;2201.60;;;;;;5003407;28;20109;-74
2024/03/09 12:00:16;;;;;;;21.00;14.75;;;410.40;2252.80;;;;;;5027496;28;20038;-74
2024/03/09 12:02:42;;;;;;;20.60;14.13;;;435.30;2278.40;;;;;;5019135;28;20018;-71
2024/03/09 12:05:17;;;;;;;19.45;12.40;;;435.40;2176.00;;;;;;5003586;28;20038;-73
2024/03/09 12:07:43;;;;;;;;;;;410.20;2150.40;;;;;;4992957;28;20161;-70
2024/03/09 12:10:13;;;;;;;23.13;15.48;;;410.20;2278.40;;;;;;4990732;28;19906;-73
2024/03/09 12:12:51;;;;;;;22.00;14.73;;;435.70;2227.20;;;;;;5006818;28;20026;-71
2024/03/09 12:15:19;;;;;;;25.17;15.38;;;435.20;2227.20;;;;;;5015937;28;20439;-71
2024/03/09 12:17:45;;;;;;;24.30;14.25;;;435.30;2355.20;;;;;;5015821;28;20500;-71
2024/03/09 12:20:13;;;;;;;19.88;13.77;;;435.50;2227.20;;;;;;4993119;28;20070;-72
2024/03/09 12:22:39;;;;;;;21.35;14.60;;;410.50;2150.40;;;;;;4990348;28;20485;-73
2024/03/09 12:25:08;;;;;;;24.38;15.15;;;435.20;2278.40;;;;;;4999449;28;20389;-71